DECVV EDDL-EDDF
Flight info
| Callsign | DECVV |
|---|---|
| Flight time | N/A |
| Altitude | 5000 |
| Route | COL6T/23L COL T911 ROLIS ROLIS5A |
| Aircraft | DA40/L-SBDGRY/S |
Departure
| Time | 2026-05-05 12:40 |
|---|---|
| Airport | Düsseldorf Airport (EDDL) |
Arrival
| Time | N/A |
|---|---|
| Airport | Frankfurt Main Airport (EDDF) |
| Time | Latitude | Longitude | Altitude | Speed | Heading |
|---|---|---|---|---|---|
| 2026-05-05 11:54 | 51.27455 | 6.75294 | 117 ft | 0 kts | 86° |
| 2026-05-05 12:27 | 51.27457 | 6.75320 | 118 ft | 5 kts | 81° |
| 2026-05-05 12:27 | 51.27463 | 6.75383 | 119 ft | 7 kts | 80° |
| 2026-05-05 12:28 | 51.27465 | 6.75400 | 120 ft | 0 kts | 80° |
| 2026-05-05 12:28 | 51.27465 | 6.75401 | 120 ft | 0 kts | 80° |
| 2026-05-05 12:28 | 51.27471 | 6.75445 | 117 ft | 7 kts | 39° |
| 2026-05-05 12:29 | 51.27480 | 6.75456 | 119 ft | 0 kts | 46° |
| 2026-05-05 12:29 | 51.27480 | 6.75457 | 119 ft | 1 kts | 54° |
| 2026-05-05 12:29 | 51.27502 | 6.75536 | 118 ft | 11 kts | 61° |
| 2026-05-05 12:29 | 51.27511 | 6.75562 | 122 ft | 0 kts | 57° |
| 2026-05-05 12:30 | 51.27520 | 6.75582 | 122 ft | 6 kts | 59° |
| 2026-05-05 12:30 | 51.27532 | 6.75631 | 123 ft | 0 kts | 62° |
| 2026-05-05 12:30 | 51.27524 | 6.75636 | 123 ft | 8 kts | 191° |
| 2026-05-05 12:30 | 51.27439 | 6.75678 | 124 ft | 18 kts | 118° |
| 2026-05-05 12:31 | 51.27461 | 6.75829 | 123 ft | 8 kts | 69° |
| 2026-05-05 12:31 | 51.27481 | 6.75879 | 124 ft | 1 kts | 56° |
| 2026-05-05 12:31 | 51.27508 | 6.75901 | 124 ft | 7 kts | 16° |
| 2026-05-05 12:31 | 51.27567 | 6.75871 | 123 ft | 11 kts | 332° |
| 2026-05-05 12:32 | 51.27646 | 6.75814 | 123 ft | 14 kts | 341° |
| 2026-05-05 12:32 | 51.27722 | 6.75809 | 122 ft | 10 kts | 4° |
| 2026-05-05 12:32 | 51.27806 | 6.75813 | 122 ft | 13 kts | 2° |
| 2026-05-05 12:32 | 51.27910 | 6.75817 | 121 ft | 16 kts | 2° |
| 2026-05-05 12:33 | 51.28005 | 6.75824 | 120 ft | 15 kts | 3° |
| 2026-05-05 12:33 | 51.28085 | 6.75927 | 119 ft | 16 kts | 53° |
| 2026-05-05 12:33 | 51.28155 | 6.76075 | 120 ft | 13 kts | 60° |
| 2026-05-05 12:33 | 51.28222 | 6.76208 | 121 ft | 17 kts | 52° |
| 2026-05-05 12:34 | 51.28301 | 6.76378 | 119 ft | 21 kts | 53° |
| 2026-05-05 12:34 | 51.28392 | 6.76571 | 120 ft | 21 kts | 55° |
| 2026-05-05 12:34 | 51.28471 | 6.76736 | 119 ft | 19 kts | 56° |
| 2026-05-05 12:34 | 51.28550 | 6.76902 | 126 ft | 20 kts | 53° |
| 2026-05-05 12:35 | 51.28635 | 6.77081 | 125 ft | 21 kts | 52° |
| 2026-05-05 12:35 | 51.28729 | 6.77277 | 126 ft | 23 kts | 52° |
| 2026-05-05 12:35 | 51.28827 | 6.77484 | 124 ft | 23 kts | 50° |
| 2026-05-05 12:35 | 51.28917 | 6.77652 | 126 ft | 12 kts | 8° |
| 2026-05-05 12:36 | 51.28943 | 6.77644 | 127 ft | 4 kts | 337° |
| 2026-05-05 12:36 | 51.28985 | 6.77595 | 124 ft | 0 kts | 321° |
| 2026-05-05 12:36 | 51.28987 | 6.77592 | 126 ft | 0 kts | 322° |
| 2026-05-05 12:37 | 51.29018 | 6.77557 | 125 ft | 13 kts | 322° |
| 2026-05-05 12:38 | 51.29043 | 6.77467 | 124 ft | 7 kts | 232° |
| 2026-05-05 12:38 | 51.29040 | 6.77462 | 124 ft | 0 kts | 231° |
| 2026-05-05 12:38 | 51.29039 | 6.77460 | 124 ft | 0 kts | 231° |
| 2026-05-05 12:38 | 51.29039 | 6.77459 | 124 ft | 1 kts | 230° |
| 2026-05-05 12:39 | 51.29036 | 6.77454 | 122 ft | 0 kts | 230° |
| 2026-05-05 12:39 | 51.29033 | 6.77447 | 122 ft | 4 kts | 231° |
| 2026-05-05 12:39 | 51.28877 | 6.77124 | 123 ft | 73 kts | 234° |
| 2026-05-05 12:39 | 51.28513 | 6.76365 | 310 ft | 93 kts | 239° |
| 2026-05-05 12:40 | 51.28155 | 6.75529 | 642 ft | 92 kts | 241° |
| 2026-05-05 12:40 | 51.27779 | 6.74655 | 949 ft | 96 kts | 238° |
| 2026-05-05 12:40 | 51.27359 | 6.73827 | 1224 ft | 96 kts | 234° |
| 2026-05-05 12:40 | 51.26954 | 6.72977 | 1525 ft | 96 kts | 237° |
| 2026-05-05 12:41 | 51.26567 | 6.72152 | 1855 ft | 93 kts | 237° |
| 2026-05-05 12:41 | 51.26174 | 6.71316 | 2164 ft | 95 kts | 236° |
| 2026-05-05 12:41 | 51.25779 | 6.70466 | 2497 ft | 94 kts | 235° |
| 2026-05-05 12:41 | 51.25390 | 6.69631 | 2821 ft | 95 kts | 234° |
| 2026-05-05 12:42 | 51.24997 | 6.68786 | 3145 ft | 94 kts | 233° |
| 2026-05-05 12:42 | 51.24610 | 6.67956 | 3461 ft | 93 kts | 233° |
| 2026-05-05 12:42 | 51.24222 | 6.67125 | 3772 ft | 94 kts | 233° |
| 2026-05-05 12:42 | 51.23832 | 6.66292 | 4083 ft | 94 kts | 232° |
| 2026-05-05 12:43 | 51.23442 | 6.65456 | 4404 ft | 94 kts | 232° |
| 2026-05-05 12:43 | 51.23055 | 6.64626 | 4721 ft | 93 kts | 232° |
| 2026-05-05 12:43 | 51.22657 | 6.63797 | 4986 ft | 99 kts | 226° |
| 2026-05-05 12:43 | 51.21977 | 6.63362 | 5004 ft | 115 kts | 179° |
| 2026-05-05 12:44 | 51.21156 | 6.63521 | 5006 ft | 122 kts | 174° |
| 2026-05-05 12:44 | 51.20298 | 6.63658 | 5007 ft | 125 kts | 174° |
| 2026-05-05 12:44 | 51.19424 | 6.63798 | 5005 ft | 127 kts | 175° |
| 2026-05-05 12:44 | 51.18547 | 6.63940 | 5004 ft | 126 kts | 175° |
| 2026-05-05 12:45 | 51.17791 | 6.64063 | 5002 ft | 128 kts | 174° |
| 2026-05-05 12:45 | 51.16908 | 6.64204 | 5003 ft | 128 kts | 174° |
| 2026-05-05 12:45 | 51.16019 | 6.64346 | 5005 ft | 128 kts | 174° |
| 2026-05-05 12:45 | 51.15137 | 6.64486 | 5007 ft | 128 kts | 174° |
| 2026-05-05 12:46 | 51.14248 | 6.64652 | 4998 ft | 128 kts | 168° |
| 2026-05-05 12:46 | 51.13474 | 6.65348 | 4990 ft | 130 kts | 137° |
| 2026-05-05 12:46 | 51.13019 | 6.66585 | 4989 ft | 133 kts | 110° |
| 2026-05-05 12:46 | 51.12984 | 6.68060 | 4985 ft | 135 kts | 88° |